createdAt,value
2018-02-11T00:00:16.340Z,44.47
2018-02-11T00:02:42.611Z,42.00
2018-02-11T00:05:08.883Z,43.67
2018-02-11T00:07:35.132Z,42.90
2018-02-11T00:10:02.172Z,43.57
2018-02-11T00:12:28.455Z,45.63
2018-02-11T00:14:54.730Z,43.50
2018-02-11T00:17:20.989Z,43.10
2018-02-11T00:19:48.011Z,43.07
2018-02-11T00:22:14.281Z,43.00
2018-02-11T00:24:40.558Z,42.00
2018-02-11T00:27:06.804Z,42.77
2018-02-11T00:29:33.125Z,44.33
2018-02-11T00:31:59.405Z,44.40
2018-02-11T00:34:25.689Z,42.33
2018-02-11T00:36:52.927Z,43.97
2018-02-11T00:39:19.450Z,42.27
2018-02-11T00:41:46.617Z,44.23
2018-02-11T00:44:12.868Z,41.70
2018-02-11T00:46:40.388Z,42.77
2018-02-11T00:49:06.717Z,43.90
2018-02-11T00:51:33.012Z,43.80
2018-02-11T00:53:59.538Z,44.07
2018-02-11T00:56:25.865Z,43.13
2018-02-11T00:58:52.298Z,45.20
2018-02-11T01:01:18.595Z,44.13
2018-02-11T01:03:44.854Z,43.37
2018-02-11T01:06:11.860Z,43.50
2018-02-11T01:08:38.140Z,44.10
2018-02-11T01:11:04.424Z,41.87
2018-02-11T01:13:30.674Z,38.87
2018-02-11T01:15:57.694Z,42.03
2018-02-11T01:18:23.958Z,40.97
2018-02-11T01:20:50.964Z,37.83
2018-02-11T01:23:17.237Z,39.70
2018-02-11T01:25:43.518Z,39.17
2018-02-11T01:28:09.778Z,41.13
2018-02-11T01:30:36.815Z,42.90
2018-02-11T01:33:03.091Z,43.53
2018-02-11T01:35:29.351Z,41.10
2018-02-11T01:37:55.618Z,42.40
2018-02-11T01:40:22.619Z,43.87
2018-02-11T01:42:49.674Z,41.37
2018-02-11T01:45:15.936Z,41.70
2018-02-11T01:47:42.942Z,42.00
2018-02-11T01:50:14.136Z,43.93
2018-02-11T01:52:41.167Z,42.47
2018-02-11T01:55:07.438Z,41.50
2018-02-11T01:57:33.710Z,43.10
2018-02-11T01:59:59.962Z,45.83
2018-02-11T02:02:26.978Z,43.90
2018-02-11T02:04:53.236Z,42.93
2018-02-11T02:07:20.072Z,41.43
2018-02-11T02:09:47.076Z,43.60
2018-02-11T02:12:13.358Z,42.40
2018-02-11T02:14:40.373Z,40.10
2018-02-11T02:17:06.637Z,39.67
2018-02-11T02:19:33.653Z,42.50
2018-02-11T02:21:59.958Z,41.57
2018-02-11T02:24:26.194Z,43.03
2018-02-11T02:26:52.463Z,39.47
2018-02-11T02:29:19.462Z,42.63
2018-02-11T02:31:45.733Z,42.60
2018-02-11T02:34:12.761Z,41.53
2018-02-11T02:36:39.032Z,41.53
2018-02-11T02:39:05.295Z,43.60
2018-02-11T02:41:31.548Z,43.43
2018-02-11T02:43:57.821Z,41.70
2018-02-11T02:46:24.084Z,42.93
2018-02-11T02:48:50.348Z,39.87
2018-02-11T02:51:16.595Z,40.67
2018-02-11T02:53:43.613Z,41.83
2018-02-11T02:56:09.856Z,44.83
2018-02-11T02:58:36.118Z,41.73
2018-02-11T03:01:02.536Z,41.87
2018-02-11T03:03:28.809Z,43.60
2018-02-11T03:05:55.080Z,43.93
2018-02-11T03:08:22.102Z,42.00
2018-02-11T03:10:48.362Z,42.07
2018-02-11T03:13:15.368Z,43.97
2018-02-11T03:15:41.626Z,42.27
2018-02-11T03:18:08.673Z,43.33
2018-02-11T03:20:35.691Z,43.60
2018-02-11T03:23:01.974Z,43.03
2018-02-11T03:25:28.228Z,42.50
2018-02-11T03:27:54.493Z,42.50
2018-02-11T03:30:20.752Z,43.30
2018-02-11T03:32:47.030Z,42.27
2018-02-11T03:35:13.298Z,41.87
2018-02-11T03:37:39.585Z,42.27
2018-02-11T03:40:05.851Z,42.03
2018-02-11T03:42:32.842Z,40.30
2018-02-11T03:44:59.108Z,41.77
2018-02-11T03:47:25.361Z,42.30
2018-02-11T03:49:51.659Z,42.67
2018-02-11T03:52:17.925Z,42.80
2018-02-11T03:54:44.240Z,39.03
2018-02-11T03:57:11.234Z,43.20
2018-02-11T03:59:37.507Z,40.37
2018-02-11T04:02:03.745Z,38.53
2018-02-11T04:04:30.022Z,39.90
2018-02-11T04:06:56.266Z,39.87
2018-02-11T04:09:22.520Z,40.13
2018-02-11T04:11:48.777Z,35.80
2018-02-11T04:14:15.063Z,40.67
2018-02-11T04:16:41.307Z,40.10
2018-02-11T04:19:07.575Z,37.73
2018-02-11T04:21:33.842Z,37.10
2018-02-11T04:24:00.101Z,38.23
2018-02-11T04:26:27.119Z,38.33
2018-02-11T04:28:53.372Z,39.00
2018-02-11T04:31:19.634Z,36.90
2018-02-11T04:33:45.912Z,38.27
2018-02-11T04:36:12.172Z,35.30
2018-02-11T04:38:39.180Z,35.00
2018-02-11T04:41:05.443Z,34.20
2018-02-11T04:43:32.454Z,34.27
2018-02-11T04:45:58.720Z,34.63
2018-02-11T04:48:25.730Z,33.40
2018-02-11T04:50:51.995Z,34.57
2018-02-11T04:53:19.002Z,34.90
2018-02-11T04:55:45.287Z,34.30
2018-02-11T04:58:12.286Z,35.00
2018-02-11T05:00:38.548Z,35.37
2018-02-11T05:03:05.544Z,34.53
2018-02-11T05:05:31.827Z,36.00
2018-02-11T05:07:58.823Z,35.00
2018-02-11T05:10:25.077Z,36.07
2018-02-11T05:12:52.827Z,34.70
2018-02-11T05:15:19.060Z,35.37
2018-02-11T05:17:45.320Z,34.00
2018-02-11T05:20:12.303Z,33.90
2018-02-11T05:22:38.555Z,35.30
2018-02-11T05:25:04.818Z,33.40
2018-02-11T05:27:31.833Z,34.87
2018-02-11T05:29:58.070Z,35.40
2018-02-11T05:32:24.327Z,33.43
2018-02-11T05:34:51.320Z,34.73
2018-02-11T05:37:17.576Z,33.70
2018-02-11T05:39:43.828Z,34.97
2018-02-11T05:42:10.839Z,32.00
2018-02-11T05:44:37.091Z,33.50
2018-02-11T05:47:03.354Z,31.23
2018-02-11T05:49:29.694Z,32.20
2018-02-11T05:51:55.983Z,30.97
2018-02-11T05:54:22.240Z,32.33
2018-02-11T05:56:48.490Z,32.50
2018-02-11T05:59:14.769Z,33.13
2018-02-11T06:01:41.758Z,33.97
2018-02-11T06:04:08.045Z,34.00
2018-02-11T06:06:35.054Z,31.27
2018-02-11T06:09:01.301Z,31.30
2018-02-11T06:11:28.306Z,33.50
2018-02-11T06:13:54.565Z,32.20
2018-02-11T06:16:20.824Z,31.83
2018-02-11T06:18:47.092Z,33.23
2018-02-11T06:21:13.375Z,33.00
2018-02-11T06:23:39.652Z,34.13
2018-02-11T06:26:05.900Z,31.87
2018-02-11T06:28:32.175Z,31.60
2018-02-11T06:30:59.179Z,30.93
2018-02-11T06:33:25.441Z,33.73
2018-02-11T06:35:51.693Z,31.67
2018-02-11T06:38:17.979Z,31.57
2018-02-11T06:40:44.233Z,31.20
2018-02-11T06:43:11.244Z,30.80
2018-02-11T06:45:37.518Z,30.70
2018-02-11T06:48:03.890Z,32.00
2018-02-11T06:50:30.170Z,32.43
2018-02-11T06:52:57.173Z,31.90
2018-02-11T06:55:23.452Z,30.90
2018-02-11T06:57:50.465Z,31.63
2018-02-11T07:00:17.472Z,30.53
2018-02-11T07:02:43.744Z,29.67
2018-02-11T07:05:10.005Z,33.07
2018-02-11T07:07:37.019Z,33.97
2018-02-11T07:10:03.296Z,32.50
2018-02-11T07:12:29.574Z,33.07
2018-02-11T07:14:55.839Z,29.57
2018-02-11T07:17:22.850Z,30.10
2018-02-11T07:19:49.116Z,31.73
2018-02-11T07:22:15.405Z,30.50
2018-02-11T07:24:41.664Z,29.37
2018-02-11T07:27:08.692Z,29.90
2018-02-11T07:29:34.964Z,26.67
2018-02-11T07:32:01.222Z,27.03
2018-02-11T07:34:27.542Z,27.60
2018-02-11T07:36:53.795Z,27.00
2018-02-11T07:39:20.074Z,26.93
2018-02-11T07:41:46.323Z,26.43
2018-02-11T07:44:12.617Z,26.50
2018-02-11T07:46:39.618Z,26.20
2018-02-11T07:49:05.864Z,27.10
2018-02-11T07:51:32.113Z,25.20
2018-02-11T07:53:58.371Z,25.60
2018-02-11T07:56:24.667Z,23.90
2018-02-11T07:58:51.695Z,24.70
2018-02-11T08:01:17.968Z,25.57
2018-02-11T08:03:44.243Z,23.73
2018-02-11T08:06:10.554Z,23.37
2018-02-11T08:08:36.834Z,23.03
2018-02-11T08:11:03.093Z,23.37
2018-02-11T08:13:29.368Z,23.30
2018-02-11T08:15:55.668Z,24.00
2018-02-11T08:18:21.978Z,21.57
2018-02-11T08:20:48.278Z,23.93
2018-02-11T08:23:15.296Z,21.90
2018-02-11T08:25:41.577Z,21.03
2018-02-11T08:28:07.841Z,22.67
2018-02-11T08:30:34.120Z,23.03
2018-02-11T08:33:01.148Z,23.20
2018-02-11T08:35:27.419Z,22.40
2018-02-11T08:37:53.715Z,23.20
2018-02-11T08:40:20.039Z,21.60
2018-02-11T08:42:46.315Z,23.10
2018-02-11T08:45:13.071Z,24.10
2018-02-11T08:47:39.317Z,24.10
2018-02-11T08:50:05.623Z,24.20
2018-02-11T08:52:31.922Z,23.47
2018-02-11T08:54:59.043Z,22.03
2018-02-11T08:57:25.417Z,23.90
2018-02-11T08:59:51.989Z,24.23
2018-02-11T09:02:19.036Z,22.13
2018-02-11T09:04:45.356Z,22.20
2018-02-11T09:07:12.026Z,22.20
2018-02-11T09:09:39.103Z,22.37
2018-02-11T09:12:06.160Z,21.53
2018-02-11T09:14:32.445Z,24.70
2018-02-11T09:16:58.916Z,21.77
2018-02-11T09:19:25.186Z,21.80
2018-02-11T09:21:51.554Z,21.87
2018-02-11T09:24:18.589Z,23.13
2018-02-11T09:26:44.865Z,22.20
2018-02-11T09:29:11.118Z,20.97
2018-02-11T09:31:37.403Z,22.53
2018-02-11T09:34:04.428Z,23.80
2018-02-11T09:36:30.723Z,23.00
2018-02-11T09:38:57.019Z,20.67
2018-02-11T09:41:23.303Z,21.73
2018-02-11T09:43:50.019Z,21.50
2018-02-11T09:46:17.204Z,21.07
2018-02-11T09:48:43.515Z,20.00
2018-02-11T09:51:09.762Z,20.80
2018-02-11T09:53:36.027Z,20.27
2018-02-11T09:56:02.288Z,22.40
2018-02-11T09:58:28.571Z,18.60
2018-02-11T10:00:55.592Z,19.43
2018-02-11T10:03:21.865Z,18.03
2018-02-11T10:05:48.191Z,19.30
2018-02-11T10:08:15.204Z,19.33
2018-02-11T10:10:41.455Z,19.13
2018-02-11T10:13:08.453Z,18.40
2018-02-11T10:15:34.739Z,19.63
2018-02-11T10:18:01.089Z,18.33
2018-02-11T10:20:28.064Z,17.20
2018-02-11T10:22:54.376Z,18.57
2018-02-11T10:25:20.654Z,17.57
2018-02-11T10:27:47.701Z,17.77
2018-02-11T10:30:14.750Z,16.87
2018-02-11T10:32:41.762Z,16.97
2018-02-11T10:35:08.048Z,18.60
2018-02-11T10:37:34.328Z,16.37
2018-02-11T10:40:01.362Z,16.37
2018-02-11T10:42:27.698Z,15.90
2018-02-11T10:44:53.984Z,14.97
2018-02-11T10:47:20.255Z,16.00
2018-02-11T10:49:46.540Z,15.07
2018-02-11T10:52:12.844Z,15.80
2018-02-11T10:54:39.103Z,15.67
2018-02-11T10:57:05.382Z,14.50
2018-02-11T10:59:31.649Z,15.60
2018-02-11T11:01:58.646Z,14.47
2018-02-11T11:04:24.933Z,14.53
2018-02-11T11:06:51.183Z,15.30
2018-02-11T11:09:17.463Z,13.60
2018-02-11T11:11:44.485Z,13.53
2018-02-11T11:14:10.788Z,13.90
2018-02-11T11:16:37.054Z,12.83
2018-02-11T11:19:03.356Z,13.17
2018-02-11T11:21:29.645Z,11.83
2018-02-11T11:23:56.643Z,12.80
2018-02-11T11:26:22.932Z,11.70
2018-02-11T11:28:49.223Z,11.43
2018-02-11T11:31:15.502Z,11.57
2018-02-11T11:33:41.770Z,11.40
2018-02-11T11:36:08.047Z,11.20
2018-02-11T11:38:34.311Z,11.77
2018-02-11T11:41:00.584Z,11.00
2018-02-11T11:43:27.604Z,10.63
2018-02-11T11:45:53.865Z,11.80
2018-02-11T11:48:20.866Z,10.87
2018-02-11T11:50:47.126Z,11.33
2018-02-11T11:53:14.133Z,10.90
2018-02-11T11:55:40.512Z,11.53
2018-02-11T11:58:07.503Z,11.00
2018-02-11T12:00:33.772Z,11.30
2018-02-11T12:03:00.774Z,12.10
2018-02-11T12:05:27.056Z,11.80
2018-02-11T12:07:53.349Z,11.33
2018-02-11T12:10:19.625Z,11.50
2018-02-11T12:12:45.904Z,11.00
2018-02-11T12:15:12.237Z,12.30
2018-02-11T12:17:38.526Z,11.90
2018-02-11T12:20:04.778Z,12.37
2018-02-11T12:22:31.103Z,11.80
2018-02-11T12:24:57.369Z,13.63
2018-02-11T12:27:23.683Z,11.70
2018-02-11T12:29:49.935Z,12.00
2018-02-11T12:32:16.241Z,11.20
2018-02-11T12:34:43.298Z,12.73
2018-02-11T12:37:09.642Z,12.07
2018-02-11T12:39:35.907Z,11.40
2018-02-11T12:42:02.180Z,12.30
2018-02-11T12:44:28.469Z,11.63
2018-02-11T12:46:55.492Z,12.70
2018-02-11T12:49:22.493Z,11.83
2018-02-11T12:51:48.771Z,12.80
2018-02-11T12:54:15.151Z,13.20
2018-02-11T12:56:41.465Z,12.87
2018-02-11T12:59:07.727Z,13.10
2018-02-11T13:01:34.047Z,13.40
2018-02-11T13:04:00.316Z,12.80
2018-02-11T13:06:27.357Z,13.40
2018-02-11T13:08:55.095Z,13.10
2018-02-11T13:11:21.396Z,13.73
2018-02-11T13:13:47.663Z,13.80
2018-02-11T13:16:13.979Z,12.70
2018-02-11T13:18:40.308Z,12.50
2018-02-11T13:21:06.579Z,13.30
2018-02-11T13:23:33.624Z,12.07
2018-02-11T13:26:00.635Z,13.10
2018-02-11T13:28:28.408Z,13.07
2018-02-11T13:30:54.694Z,13.20
2018-02-11T13:33:20.970Z,13.10
2018-02-11T13:35:47.230Z,12.63
2018-02-11T13:38:14.247Z,13.10
2018-02-11T13:40:40.538Z,12.60
2018-02-11T13:43:06.875Z,12.80
2018-02-11T13:45:33.132Z,12.00
2018-02-11T13:47:59.408Z,13.17
2018-02-11T13:50:25.670Z,12.60
2018-02-11T13:52:52.095Z,13.50
2018-02-11T13:55:18.350Z,12.43
2018-02-11T13:57:44.633Z,13.07
2018-02-11T14:00:10.951Z,13.20
2018-02-11T14:02:37.235Z,13.10
2018-02-11T14:05:03.542Z,13.47
2018-02-11T14:07:29.796Z,13.77
2018-02-11T14:09:56.098Z,12.83
2018-02-11T14:12:22.358Z,12.33
2018-02-11T14:14:49.395Z,13.67
2018-02-11T14:17:16.440Z,13.80
2018-02-11T14:19:43.482Z,12.80
2018-02-11T14:22:09.747Z,12.90
2018-02-11T14:24:36.795Z,11.90
2018-02-11T14:27:03.796Z,12.20
2018-02-11T14:29:30.071Z,13.23
2018-02-11T14:31:57.064Z,13.70
2018-02-11T14:34:23.334Z,13.77
2018-02-11T14:36:49.589Z,12.43
2018-02-11T14:39:15.897Z,13.07
2018-02-11T14:41:42.911Z,13.40
2018-02-11T14:44:09.240Z,13.00
2018-02-11T14:46:35.530Z,11.70
2018-02-11T14:49:01.864Z,11.93
2018-02-11T14:51:28.140Z,11.30
2018-02-11T14:53:54.432Z,11.47
2018-02-11T14:56:21.088Z,12.27
2018-02-11T14:58:47.375Z,11.60
2018-02-11T15:01:14.373Z,11.73
2018-02-11T15:03:40.636Z,11.23
2018-02-11T15:06:06.907Z,12.67
2018-02-11T15:08:33.176Z,12.87
2018-02-11T15:10:59.457Z,10.93
2018-02-11T15:13:25.739Z,11.83
2018-02-11T15:15:51.994Z,12.20
2018-02-11T15:18:18.995Z,11.70
2018-02-11T15:20:45.266Z,11.53
2018-02-11T15:23:12.252Z,11.27
2018-02-11T15:25:38.534Z,11.90
2018-02-11T15:28:05.530Z,12.13
2018-02-11T15:30:31.842Z,11.67
2018-02-11T15:32:58.103Z,11.17
2018-02-11T15:35:24.408Z,12.20
2018-02-11T15:37:50.713Z,11.07
2018-02-11T15:40:17.737Z,11.03
2018-02-11T15:42:43.995Z,12.20
2018-02-11T15:45:10.395Z,11.90
2018-02-11T15:47:37.428Z,12.10
2018-02-11T15:50:03.739Z,12.43
2018-02-11T15:52:29.986Z,11.43
2018-02-11T15:54:56.430Z,11.60
2018-02-11T15:57:22.739Z,12.63
2018-02-11T15:59:48.996Z,11.50
2018-02-11T16:02:15.267Z,12.37
2018-02-11T16:04:41.519Z,11.90
2018-02-11T16:07:07.799Z,11.90
2018-02-11T16:09:34.795Z,14.00
2018-02-11T16:12:01.077Z,12.40
2018-02-11T16:14:28.098Z,13.80
2018-02-11T16:16:54.386Z,12.20
2018-02-11T16:19:22.189Z,12.77
2018-02-11T16:21:48.474Z,12.73
2018-02-11T16:24:14.720Z,12.60
2018-02-11T16:26:40.988Z,12.30
2018-02-11T16:29:07.257Z,11.90
2018-02-11T16:31:33.534Z,13.30
2018-02-11T16:33:59.792Z,11.90
2018-02-11T16:36:26.808Z,13.17
2018-02-11T16:38:53.075Z,13.43
2018-02-11T16:41:19.345Z,13.50
2018-02-11T16:43:45.603Z,13.27
2018-02-11T16:46:11.905Z,13.00
2018-02-11T16:48:38.156Z,14.10
2018-02-11T16:51:05.157Z,12.63
2018-02-11T16:53:31.414Z,13.67
2018-02-11T16:55:57.662Z,14.90
2018-02-11T16:58:23.924Z,13.60
2018-02-11T17:00:50.183Z,13.40
2018-02-11T17:03:16.453Z,14.00
2018-02-11T17:05:43.492Z,13.17
2018-02-11T17:08:10.527Z,14.60
2018-02-11T17:10:36.817Z,14.20
2018-02-11T17:13:03.096Z,14.10
2018-02-11T17:15:30.114Z,15.03
2018-02-11T17:17:56.417Z,14.40
2018-02-11T17:20:22.693Z,13.77
2018-02-11T17:22:49.022Z,14.43
2018-02-11T17:25:16.041Z,14.40
2018-02-11T17:27:42.307Z,13.60
2018-02-11T17:30:08.567Z,13.17
2018-02-11T17:32:35.588Z,12.50
2018-02-11T17:35:01.843Z,13.57
2018-02-11T17:37:28.830Z,13.77
2018-02-11T17:39:55.127Z,12.80
2018-02-11T17:42:21.462Z,13.03
2018-02-11T17:44:47.775Z,13.30
2018-02-11T17:47:14.774Z,11.80
2018-02-11T17:49:41.054Z,12.50
2018-02-11T17:52:08.075Z,12.30
2018-02-11T17:54:34.409Z,12.90
2018-02-11T17:57:01.420Z,13.37
2018-02-11T17:59:27.694Z,12.67
2018-02-11T18:01:54.726Z,13.37
2018-02-11T18:04:21.736Z,12.67
2018-02-11T18:06:48.008Z,14.23
2018-02-11T18:09:15.027Z,13.43
2018-02-11T18:11:48.572Z,13.20
2018-02-11T18:14:15.594Z,13.83
2018-02-11T18:16:41.848Z,15.13
2018-02-11T18:19:08.114Z,14.90
2018-02-11T18:21:34.353Z,14.70
2018-02-11T18:24:00.613Z,14.33
2018-02-11T18:26:27.622Z,15.50
2018-02-11T18:28:53.867Z,14.63
2018-02-11T18:31:20.158Z,16.00
2018-02-11T18:33:46.442Z,14.90
2018-02-11T18:36:12.742Z,14.00
2018-02-11T18:38:38.998Z,13.37
2018-02-11T18:41:06.035Z,14.27
2018-02-11T18:43:32.299Z,14.37
2018-02-11T18:45:58.570Z,14.20
2018-02-11T18:48:24.829Z,13.20
2018-02-11T18:50:51.848Z,13.73
2018-02-11T18:53:18.121Z,12.70
2018-02-11T18:55:44.414Z,13.90
2018-02-11T18:58:10.686Z,12.93
2018-02-11T19:00:37.045Z,13.27
2018-02-11T19:03:03.336Z,13.60
2018-02-11T19:05:30.407Z,13.97
2018-02-11T19:07:56.671Z,13.80
2018-02-11T19:10:22.959Z,14.40
2018-02-11T19:12:49.981Z,14.50
2018-02-11T19:15:16.998Z,13.57
2018-02-11T19:17:43.590Z,14.30
2018-02-11T19:20:09.838Z,13.80
2018-02-11T19:22:36.364Z,14.30
2018-02-11T19:25:02.625Z,13.83
2018-02-11T19:27:29.145Z,13.60
2018-02-11T19:29:55.479Z,13.20
2018-02-11T19:32:22.108Z,13.90
2018-02-11T19:34:48.382Z,13.97
2018-02-11T19:37:15.186Z,14.77
2018-02-11T19:39:41.693Z,14.53
2018-02-11T19:42:07.958Z,14.17
2018-02-11T19:44:34.211Z,13.70
2018-02-11T19:47:00.479Z,13.60
2018-02-11T19:49:26.932Z,14.60
2018-02-11T19:51:53.216Z,15.07
2018-02-11T19:54:20.257Z,15.10
2018-02-11T19:56:46.824Z,14.67
2018-02-11T19:59:13.098Z,14.07
2018-02-11T20:01:39.612Z,13.13
2018-02-11T20:04:05.902Z,12.60
2018-02-11T20:06:32.201Z,12.07
2018-02-11T20:08:58.476Z,10.73
2018-02-11T20:11:24.736Z,10.17
2018-02-11T20:13:51.039Z,10.23
2018-02-11T20:16:17.326Z,9.47
2018-02-11T20:18:44.395Z,10.43
2018-02-11T20:21:11.388Z,9.90
2018-02-11T20:23:37.662Z,9.13
2018-02-11T20:26:04.968Z,10.30
2018-02-11T20:28:31.242Z,9.63
2018-02-11T20:30:58.265Z,8.47
2018-02-11T20:33:24.610Z,9.20
2018-02-11T20:35:51.789Z,9.30
2018-02-11T20:38:18.113Z,10.40
2018-02-11T20:40:45.512Z,10.07
2018-02-11T20:43:11.808Z,10.00
2018-02-11T20:45:38.819Z,10.80
2018-02-11T20:48:05.094Z,10.50
2018-02-11T20:50:31.459Z,11.67
2018-02-11T20:52:57.807Z,11.47
2018-02-11T20:55:24.926Z,11.00
2018-02-11T20:57:51.274Z,10.33
2018-02-11T21:00:17.568Z,10.67
2018-02-11T21:02:44.095Z,12.00
2018-02-11T21:05:10.418Z,10.80
2018-02-11T21:07:36.679Z,12.20
2018-02-11T21:10:02.958Z,10.80
2018-02-11T21:12:30.016Z,10.47
2018-02-11T21:14:56.302Z,10.70
2018-02-11T21:17:22.538Z,10.50
2018-02-11T21:19:49.115Z,10.37
2018-02-11T21:22:16.111Z,9.90
2018-02-11T21:24:42.458Z,9.70
2018-02-11T21:27:09.482Z,8.90
2018-02-11T21:29:35.740Z,9.40
2018-02-11T21:32:02.743Z,8.40
2018-02-11T21:34:29.009Z,8.67
2018-02-11T21:36:55.451Z,8.13
2018-02-11T21:39:21.758Z,7.93
2018-02-11T21:41:48.809Z,7.80
2018-02-11T21:44:15.068Z,7.63
2018-02-11T21:46:41.401Z,7.73
2018-02-11T21:49:08.413Z,8.20
2018-02-11T21:51:34.688Z,7.23
2018-02-11T21:54:00.976Z,6.40
2018-02-11T21:56:27.268Z,6.23
2018-02-11T21:58:53.623Z,5.90
2018-02-11T22:01:19.919Z,6.50
2018-02-11T22:03:46.179Z,6.57
2018-02-11T22:06:12.445Z,6.37
2018-02-11T22:08:39.467Z,5.70
2018-02-11T22:11:05.732Z,5.50
2018-02-11T22:13:32.029Z,5.60
2018-02-11T22:15:58.304Z,5.00
2018-02-11T22:18:24.568Z,5.10
2018-02-11T22:20:50.826Z,5.03
2018-02-11T22:23:17.071Z,5.47
2018-02-11T22:25:44.093Z,4.63
2018-02-11T22:28:10.384Z,4.70
2018-02-11T22:30:36.641Z,5.37
2018-02-11T22:33:02.916Z,4.70
2018-02-11T22:35:29.173Z,7.17
2018-02-11T22:37:55.461Z,3.93
2018-02-11T22:40:21.759Z,4.90
2018-02-11T22:42:48.034Z,4.97
2018-02-11T22:45:14.388Z,5.40
2018-02-11T22:47:40.642Z,4.50
2018-02-11T22:50:06.882Z,5.10
2018-02-11T22:52:33.170Z,5.63
2018-02-11T22:54:59.442Z,4.77
2018-02-11T22:57:25.707Z,4.17
2018-02-11T23:02:18.246Z,4.70
2018-02-11T23:04:44.510Z,5.13
2018-02-11T23:07:10.788Z,4.87
2018-02-11T23:09:37.106Z,5.20
2018-02-11T23:12:03.390Z,4.90
2018-02-11T23:14:31.203Z,4.80
2018-02-11T23:16:57.451Z,5.83
2018-02-11T23:19:23.734Z,4.90
2018-02-11T23:21:50.030Z,5.17
2018-02-11T23:24:17.032Z,4.70
2018-02-11T23:26:43.282Z,5.00
2018-02-11T23:29:09.563Z,4.63
2018-02-11T23:31:35.824Z,4.37
2018-02-11T23:34:02.103Z,4.90
2018-02-11T23:36:28.359Z,3.90
2018-02-11T23:38:54.626Z,4.70
2018-02-11T23:41:20.879Z,4.30
2018-02-11T23:43:47.161Z,4.17
2018-02-11T23:46:13.408Z,4.67
2018-02-11T23:48:39.681Z,5.17
2018-02-11T23:51:05.962Z,4.90
2018-02-11T23:53:32.275Z,5.13
2018-02-11T23:55:58.525Z,5.00
2018-02-11T23:58:24.795Z,4.67
